sensor_id;sensor_type;location;lat;lon;timestamp;P1;durP1;ratioP1;P2;durP2;ratioP2
55224;SDS011;41091;49.400;8.684;2023-02-28T00:00:27;1.85;;;1.60;;
55224;SDS011;41091;49.400;8.684;2023-02-28T00:02:52;1.65;;;1.25;;
55224;SDS011;41091;49.400;8.684;2023-02-28T00:05:21;1.35;;;1.33;;
55224;SDS011;41091;49.400;8.684;2023-02-28T00:07:48;1.50;;;1.40;;
55224;SDS011;41091;49.400;8.684;2023-02-28T00:10:15;2.00;;;1.80;;
55224;SDS011;41091;49.400;8.684;2023-02-28T00:12:52;2.47;;;1.65;;
55224;SDS011;41091;49.400;8.684;2023-02-28T00:15:19;2.45;;;1.70;;
55224;SDS011;41091;49.400;8.684;2023-02-28T00:17:44;2.60;;;1.48;;
55224;SDS011;41091;49.400;8.684;2023-02-28T00:20:10;1.60;;;1.50;;
55224;SDS011;41091;49.400;8.684;2023-02-28T00:22:41;4.13;;;1.92;;
55224;SDS011;41091;49.400;8.684;2023-02-28T00:27:34;4.07;;;1.60;;
55224;SDS011;41091;49.400;8.684;2023-02-28T00:30:02;10.20;;;1.77;;
55224;SDS011;41091;49.400;8.684;2023-02-28T00:32:28;2.20;;;1.75;;
55224;SDS011;41091;49.400;8.684;2023-02-28T00:34:54;1.77;;;1.67;;
55224;SDS011;41091;49.400;8.684;2023-02-28T00:37:22;1.48;;;1.30;;
55224;SDS011;41091;49.400;8.684;2023-02-28T00:39:50;1.90;;;1.77;;
55224;SDS011;41091;49.400;8.684;2023-02-28T00:42:15;1.80;;;1.70;;
55224;SDS011;41091;49.400;8.684;2023-02-28T00:44:43;2.20;;;2.00;;
55224;SDS011;41091;49.400;8.684;2023-02-28T00:47:11;5.93;;;2.65;;
55224;SDS011;41091;49.400;8.684;2023-02-28T00:49:36;3.78;;;2.00;;
55224;SDS011;41091;49.400;8.684;2023-02-28T00:52:02;1.50;;;1.40;;
55224;SDS011;41091;49.400;8.684;2023-02-28T00:54:27;2.28;;;2.08;;
55224;SDS011;41091;49.400;8.684;2023-02-28T00:56:55;1.95;;;1.80;;
55224;SDS011;41091;49.400;8.684;2023-02-28T00:59:20;1.92;;;1.42;;
55224;SDS011;41091;49.400;8.684;2023-02-28T01:01:46;3.88;;;3.58;;
55224;SDS011;41091;49.400;8.684;2023-02-28T01:04:12;1.65;;;1.55;;
55224;SDS011;41091;49.400;8.684;2023-02-28T01:06:38;2.10;;;1.67;;
55224;SDS011;41091;49.400;8.684;2023-02-28T01:09:04;1.20;;;1.20;;
55224;SDS011;41091;49.400;8.684;2023-02-28T01:11:30;1.85;;;1.55;;
55224;SDS011;41091;49.400;8.684;2023-02-28T01:13:57;2.08;;;1.80;;
55224;SDS011;41091;49.400;8.684;2023-02-28T01:16:25;2.13;;;1.70;;
55224;SDS011;41091;49.400;8.684;2023-02-28T01:18:50;1.45;;;1.40;;
55224;SDS011;41091;49.400;8.684;2023-02-28T01:21:17;2.40;;;1.50;;
55224;SDS011;41091;49.400;8.684;2023-02-28T01:23:45;1.57;;;1.47;;
55224;SDS011;41091;49.400;8.684;2023-02-28T01:26:15;1.48;;;1.38;;
55224;SDS011;41091;49.400;8.684;2023-02-28T01:28:42;5.22;;;1.60;;
55224;SDS011;41091;49.400;8.684;2023-02-28T01:31:08;1.30;;;1.30;;
55224;SDS011;41091;49.400;8.684;2023-02-28T01:33:34;2.85;;;1.80;;
55224;SDS011;41091;49.400;8.684;2023-02-28T01:36:04;2.13;;;1.92;;
55224;SDS011;41091;49.400;8.684;2023-02-28T01:38:30;3.67;;;2.22;;
55224;SDS011;41091;49.400;8.684;2023-02-28T01:40:56;1.60;;;1.48;;
55224;SDS011;41091;49.400;8.684;2023-02-28T01:43:25;2.17;;;1.95;;
55224;SDS011;41091;49.400;8.684;2023-02-28T01:45:55;4.55;;;2.20;;
55224;SDS011;41091;49.400;8.684;2023-02-28T01:48:23;1.77;;;1.75;;
55224;SDS011;41091;49.400;8.684;2023-02-28T01:50:52;2.13;;;1.88;;
55224;SDS011;41091;49.400;8.684;2023-02-28T01:53:21;2.38;;;2.00;;
55224;SDS011;41091;49.400;8.684;2023-02-28T01:55:51;2.35;;;2.15;;
55224;SDS011;41091;49.400;8.684;2023-02-28T01:58:17;1.80;;;1.65;;
55224;SDS011;41091;49.400;8.684;2023-02-28T02:00:43;2.38;;;2.17;;
55224;SDS011;41091;49.400;8.684;2023-02-28T02:03:14;1.42;;;1.42;;
55224;SDS011;41091;49.400;8.684;2023-02-28T02:05:44;2.72;;;1.90;;
55224;SDS011;41091;49.400;8.684;2023-02-28T02:08:13;2.03;;;1.92;;
55224;SDS011;41091;49.400;8.684;2023-02-28T02:10:43;1.75;;;1.60;;
55224;SDS011;41091;49.400;8.684;2023-02-28T02:19:00;4.43;;;2.67;;
55224;SDS011;41091;49.400;8.684;2023-02-28T02:24:08;2.35;;;1.80;;
55224;SDS011;41091;49.400;8.684;2023-02-28T02:27:25;1.98;;;1.70;;
55224;SDS011;41091;49.400;8.684;2023-02-28T02:43:45;2.80;;;2.00;;
55224;SDS011;41091;49.400;8.684;2023-02-28T02:46:29;2.67;;;2.50;;
55224;SDS011;41091;49.400;8.684;2023-02-28T02:49:00;2.53;;;2.40;;
55224;SDS011;41091;49.400;8.684;2023-02-28T02:51:30;2.22;;;2.03;;
55224;SDS011;41091;49.400;8.684;2023-02-28T02:54:19;4.55;;;2.58;;
55224;SDS011;41091;49.400;8.684;2023-02-28T02:56:45;2.67;;;2.47;;
55224;SDS011;41091;49.400;8.684;2023-02-28T02:59:12;2.50;;;2.25;;
55224;SDS011;41091;49.400;8.684;2023-02-28T03:01:40;2.63;;;2.30;;
55224;SDS011;41091;49.400;8.684;2023-02-28T03:04:14;2.75;;;2.55;;
55224;SDS011;41091;49.400;8.684;2023-02-28T03:06:42;2.35;;;2.13;;
55224;SDS011;41091;49.400;8.684;2023-02-28T03:09:09;2.75;;;2.05;;
55224;SDS011;41091;49.400;8.684;2023-02-28T03:11:35;6.55;;;2.30;;
55224;SDS011;41091;49.400;8.684;2023-02-28T03:19:45;5.57;;;2.47;;
55224;SDS011;41091;49.400;8.684;2023-02-28T03:36:02;2.47;;;2.33;;
55224;SDS011;41091;49.400;8.684;2023-02-28T03:38:29;3.47;;;3.17;;
55224;SDS011;41091;49.400;8.684;2023-02-28T03:41:00;2.83;;;2.53;;
55224;SDS011;41091;49.400;8.684;2023-02-28T03:43:31;3.90;;;3.05;;
55224;SDS011;41091;49.400;8.684;2023-02-28T03:46:05;3.22;;;3.03;;
55224;SDS011;41091;49.400;8.684;2023-02-28T03:48:40;2.38;;;2.28;;
55224;SDS011;41091;49.400;8.684;2023-02-28T03:51:13;6.43;;;2.80;;
55224;SDS011;41091;49.400;8.684;2023-02-28T03:53:52;2.85;;;2.63;;
55224;SDS011;41091;49.400;8.684;2023-02-28T04:01:35;2.90;;;2.70;;
55224;SDS011;41091;49.400;8.684;2023-02-28T04:04:03;3.13;;;2.92;;
55224;SDS011;41091;49.400;8.684;2023-02-28T04:06:30;3.13;;;2.88;;
55224;SDS011;41091;49.400;8.684;2023-02-28T04:08:56;3.05;;;2.83;;
55224;SDS011;41091;49.400;8.684;2023-02-28T04:11:38;4.80;;;3.13;;
55224;SDS011;41091;49.400;8.684;2023-02-28T04:14:05;4.22;;;3.80;;
55224;SDS011;41091;49.400;8.684;2023-02-28T04:16:32;5.03;;;3.42;;
55224;SDS011;41091;49.400;8.684;2023-02-28T04:18:59;3.38;;;2.95;;
55224;SDS011;41091;49.400;8.684;2023-02-28T04:21:31;5.18;;;3.08;;
55224;SDS011;41091;49.400;8.684;2023-02-28T04:24:00;2.55;;;2.38;;
55224;SDS011;41091;49.400;8.684;2023-02-28T04:26:34;3.58;;;3.05;;
55224;SDS011;41091;49.400;8.684;2023-02-28T04:29:01;3.10;;;2.80;;
55224;SDS011;41091;49.400;8.684;2023-02-28T04:31:30;4.13;;;3.03;;
55224;SDS011;41091;49.400;8.684;2023-02-28T04:33:58;5.53;;;3.05;;
55224;SDS011;41091;49.400;8.684;2023-02-28T04:36:24;3.47;;;3.17;;
55224;SDS011;41091;49.400;8.684;2023-02-28T04:38:54;3.15;;;2.80;;
55224;SDS011;41091;49.400;8.684;2023-02-28T04:41:22;2.75;;;2.55;;
55224;SDS011;41091;49.400;8.684;2023-02-28T04:43:48;3.97;;;3.50;;
55224;SDS011;41091;49.400;8.684;2023-02-28T04:46:13;3.08;;;2.85;;
55224;SDS011;41091;49.400;8.684;2023-02-28T04:48:39;5.65;;;3.15;;
55224;SDS011;41091;49.400;8.684;2023-02-28T04:51:09;3.65;;;2.78;;
55224;SDS011;41091;49.400;8.684;2023-02-28T04:53:36;3.67;;;3.38;;
55224;SDS011;41091;49.400;8.684;2023-02-28T04:56:03;3.28;;;2.60;;
55224;SDS011;41091;49.400;8.684;2023-02-28T04:58:28;3.88;;;3.38;;
55224;SDS011;41091;49.400;8.684;2023-02-28T05:00:56;2.67;;;2.47;;
55224;SDS011;41091;49.400;8.684;2023-02-28T05:03:26;4.15;;;2.80;;
55224;SDS011;41091;49.400;8.684;2023-02-28T05:05:54;3.38;;;3.00;;
55224;SDS011;41091;49.400;8.684;2023-02-28T05:08:21;6.30;;;2.70;;
55224;SDS011;41091;49.400;8.684;2023-02-28T05:10:47;3.03;;;2.83;;
55224;SDS011;41091;49.400;8.684;2023-02-28T05:13:14;2.55;;;2.35;;
55224;SDS011;41091;49.400;8.684;2023-02-28T05:15:40;4.50;;;3.55;;
55224;SDS011;41091;49.400;8.684;2023-02-28T05:18:05;3.60;;;3.28;;
55224;SDS011;41091;49.400;8.684;2023-02-28T05:20:30;2.75;;;2.47;;
55224;SDS011;41091;49.400;8.684;2023-02-28T05:22:56;2.70;;;2.50;;
55224;SDS011;41091;49.400;8.684;2023-02-28T05:25:23;2.95;;;2.50;;
55224;SDS011;41091;49.400;8.684;2023-02-28T05:27:48;4.65;;;2.83;;
55224;SDS011;41091;49.400;8.684;2023-02-28T05:30:14;3.00;;;2.67;;
55224;SDS011;41091;49.400;8.684;2023-02-28T05:32:42;2.38;;;2.17;;
55224;SDS011;41091;49.400;8.684;2023-02-28T05:35:12;4.30;;;2.85;;
55224;SDS011;41091;49.400;8.684;2023-02-28T05:37:38;3.13;;;2.83;;
55224;SDS011;41091;49.400;8.684;2023-02-28T05:40:04;3.05;;;2.83;;
55224;SDS011;41091;49.400;8.684;2023-02-28T05:42:36;3.03;;;2.67;;
55224;SDS011;41091;49.400;8.684;2023-02-28T05:45:03;3.90;;;2.90;;
55224;SDS011;41091;49.400;8.684;2023-02-28T05:47:29;4.60;;;3.47;;
55224;SDS011;41091;49.400;8.684;2023-02-28T05:49:57;3.83;;;2.40;;
55224;SDS011;41091;49.400;8.684;2023-02-28T05:52:22;7.80;;;3.15;;
55224;SDS011;41091;49.400;8.684;2023-02-28T05:54:48;6.22;;;2.92;;
55224;SDS011;41091;49.400;8.684;2023-02-28T05:57:18;3.35;;;2.95;;
55224;SDS011;41091;49.400;8.684;2023-02-28T05:59:43;4.50;;;3.17;;
55224;SDS011;41091;49.400;8.684;2023-02-28T06:02:11;5.75;;;3.17;;
55224;SDS011;41091;49.400;8.684;2023-02-28T06:04:40;6.40;;;3.97;;
55224;SDS011;41091;49.400;8.684;2023-02-28T06:07:06;3.70;;;2.95;;
55224;SDS011;41091;49.400;8.684;2023-02-28T06:09:34;3.35;;;2.85;;
55224;SDS011;41091;49.400;8.684;2023-02-28T06:12:03;5.80;;;2.78;;
55224;SDS011;41091;49.400;8.684;2023-02-28T06:14:30;3.63;;;3.10;;
55224;SDS011;41091;49.400;8.684;2023-02-28T06:16:58;3.67;;;3.38;;
55224;SDS011;41091;49.400;8.684;2023-02-28T06:19:27;5.13;;;2.92;;
55224;SDS011;41091;49.400;8.684;2023-02-28T06:21:53;5.57;;;3.00;;
55224;SDS011;41091;49.400;8.684;2023-02-28T06:24:20;4.43;;;3.03;;
55224;SDS011;41091;49.400;8.684;2023-02-28T06:26:45;4.60;;;2.70;;
55224;SDS011;41091;49.400;8.684;2023-02-28T06:29:11;3.22;;;3.03;;
55224;SDS011;41091;49.400;8.684;2023-02-28T06:31:36;3.55;;;3.25;;
55224;SDS011;41091;49.400;8.684;2023-02-28T06:34:03;3.83;;;3.33;;
55224;SDS011;41091;49.400;8.684;2023-02-28T06:36:29;3.30;;;3.10;;
55224;SDS011;41091;49.400;8.684;2023-02-28T06:38:55;3.47;;;3.28;;
55224;SDS011;41091;49.400;8.684;2023-02-28T06:41:21;5.03;;;3.65;;
55224;SDS011;41091;49.400;8.684;2023-02-28T06:43:50;4.07;;;3.70;;
55224;SDS011;41091;49.400;8.684;2023-02-28T06:46:18;6.85;;;3.72;;
55224;SDS011;41091;49.400;8.684;2023-02-28T06:48:44;7.38;;;3.50;;
55224;SDS011;41091;49.400;8.684;2023-02-28T06:51:11;4.43;;;3.63;;
55224;SDS011;41091;49.400;8.684;2023-02-28T06:53:39;4.13;;;3.58;;
55224;SDS011;41091;49.400;8.684;2023-02-28T06:56:07;5.47;;;4.35;;
55224;SDS011;41091;49.400;8.684;2023-02-28T06:58:36;3.28;;;3.08;;
55224;SDS011;41091;49.400;8.684;2023-02-28T07:01:05;4.20;;;3.72;;
55224;SDS011;41091;49.400;8.684;2023-02-28T07:03:31;4.03;;;3.08;;
55224;SDS011;41091;49.400;8.684;2023-02-28T07:05:57;3.63;;;3.42;;
55224;SDS011;41091;49.400;8.684;2023-02-28T07:08:25;4.85;;;3.20;;
55224;SDS011;41091;49.400;8.684;2023-02-28T07:10:52;4.22;;;3.83;;
55224;SDS011;41091;49.400;8.684;2023-02-28T07:13:21;4.05;;;3.70;;
55224;SDS011;41091;49.400;8.684;2023-02-28T07:15:59;5.85;;;3.67;;
55224;SDS011;41091;49.400;8.684;2023-02-28T07:18:25;4.43;;;3.72;;
55224;SDS011;41091;49.400;8.684;2023-02-28T07:20:51;4.57;;;4.22;;
55224;SDS011;41091;49.400;8.684;2023-02-28T07:23:17;4.50;;;3.70;;
55224;SDS011;41091;49.400;8.684;2023-02-28T07:25:44;8.65;;;3.90;;
55224;SDS011;41091;49.400;8.684;2023-02-28T07:28:10;6.43;;;3.72;;
55224;SDS011;41091;49.400;8.684;2023-02-28T07:30:36;4.00;;;3.70;;
55224;SDS011;41091;49.400;8.684;2023-02-28T07:33:04;4.28;;;3.88;;
55224;SDS011;41091;49.400;8.684;2023-02-28T07:35:29;4.07;;;3.75;;
55224;SDS011;41091;49.400;8.684;2023-02-28T07:37:56;7.35;;;3.55;;
55224;SDS011;41091;49.400;8.684;2023-02-28T07:40:25;4.20;;;3.90;;
55224;SDS011;41091;49.400;8.684;2023-02-28T07:42:51;4.30;;;3.92;;
55224;SDS011;41091;49.400;8.684;2023-02-28T07:45:16;3.85;;;3.55;;
55224;SDS011;41091;49.400;8.684;2023-02-28T07:47:44;5.72;;;3.85;;
55224;SDS011;41091;49.400;8.684;2023-02-28T07:50:11;6.35;;;4.50;;
55224;SDS011;41091;49.400;8.684;2023-02-28T07:52:38;5.03;;;4.18;;
55224;SDS011;41091;49.400;8.684;2023-02-28T07:55:04;5.85;;;4.20;;
55224;SDS011;41091;49.400;8.684;2023-02-28T07:57:30;8.77;;;4.30;;
55224;SDS011;41091;49.400;8.684;2023-02-28T07:59:55;4.70;;;3.85;;
55224;SDS011;41091;49.400;8.684;2023-02-28T08:02:21;5.38;;;3.60;;
55224;SDS011;41091;49.400;8.684;2023-02-28T08:04:46;5.63;;;3.80;;
55224;SDS011;41091;49.400;8.684;2023-02-28T08:07:14;5.10;;;4.20;;
55224;SDS011;41091;49.400;8.684;2023-02-28T08:09:43;7.70;;;3.60;;
55224;SDS011;41091;49.400;8.684;2023-02-28T08:12:09;5.80;;;4.45;;
55224;SDS011;41091;49.400;8.684;2023-02-28T08:14:35;6.13;;;4.60;;
55224;SDS011;41091;49.400;8.684;2023-02-28T08:17:01;4.63;;;4.20;;
55224;SDS011;41091;49.400;8.684;2023-02-28T08:19:29;5.82;;;4.47;;
55224;SDS011;41091;49.400;8.684;2023-02-28T08:21:54;7.82;;;4.90;;
55224;SDS011;41091;49.400;8.684;2023-02-28T08:24:20;5.47;;;4.43;;
55224;SDS011;41091;49.400;8.684;2023-02-28T08:26:45;5.43;;;4.75;;
55224;SDS011;41091;49.400;8.684;2023-02-28T08:29:11;5.22;;;4.78;;
55224;SDS011;41091;49.400;8.684;2023-02-28T08:31:36;4.93;;;4.53;;
55224;SDS011;41091;49.400;8.684;2023-02-28T08:34:08;6.38;;;5.07;;
55224;SDS011;41091;49.400;8.684;2023-02-28T08:36:38;6.53;;;4.65;;
55224;SDS011;41091;49.400;8.684;2023-02-28T08:39:04;7.65;;;4.68;;
55224;SDS011;41091;49.400;8.684;2023-02-28T08:41:29;7.50;;;3.83;;
55224;SDS011;41091;49.400;8.684;2023-02-28T08:43:55;9.38;;;4.45;;
55224;SDS011;41091;49.400;8.684;2023-02-28T08:46:21;7.78;;;4.38;;
55224;SDS011;41091;49.400;8.684;2023-02-28T08:48:54;5.47;;;4.20;;
55224;SDS011;41091;49.400;8.684;2023-02-28T08:51:24;5.88;;;3.75;;
55224;SDS011;41091;49.400;8.684;2023-02-28T08:53:53;5.38;;;4.20;;
55224;SDS011;41091;49.400;8.684;2023-02-28T08:56:19;7.10;;;4.47;;
55224;SDS011;41091;49.400;8.684;2023-02-28T08:58:45;26.50;;;11.90;;
55224;SDS011;41091;49.400;8.684;2023-02-28T09:03:38;6.97;;;4.63;;
55224;SDS011;41091;49.400;8.684;2023-02-28T09:06:04;5.47;;;4.50;;
55224;SDS011;41091;49.400;8.684;2023-02-28T09:08:30;4.90;;;4.35;;
55224;SDS011;41091;49.400;8.684;2023-02-28T09:10:58;4.97;;;4.28;;
55224;SDS011;41091;49.400;8.684;2023-02-28T09:13:26;6.88;;;4.35;;
55224;SDS011;41091;49.400;8.684;2023-02-28T09:15:52;6.05;;;4.10;;
55224;SDS011;41091;49.400;8.684;2023-02-28T09:18:18;6.40;;;4.35;;
55224;SDS011;41091;49.400;8.684;2023-02-28T09:20:43;6.13;;;4.72;;
55224;SDS011;41091;49.400;8.684;2023-02-28T09:23:10;4.70;;;4.07;;
55224;SDS011;41091;49.400;8.684;2023-02-28T09:25:37;6.63;;;4.70;;
55224;SDS011;41091;49.400;8.684;2023-02-28T09:28:03;5.88;;;4.35;;
55224;SDS011;41091;49.400;8.684;2023-02-28T09:30:28;6.90;;;4.60;;
55224;SDS011;41091;49.400;8.684;2023-02-28T09:32:54;7.05;;;4.50;;
55224;SDS011;41091;49.400;8.684;2023-02-28T09:35:23;6.55;;;4.55;;
55224;SDS011;41091;49.400;8.684;2023-02-28T09:37:50;5.72;;;4.18;;
55224;SDS011;41091;49.400;8.684;2023-02-28T09:40:19;4.35;;;3.67;;
55224;SDS011;41091;49.400;8.684;2023-02-28T09:42:49;4.38;;;4.03;;
55224;SDS011;41091;49.400;8.684;2023-02-28T09:45:51;4.88;;;4.38;;
55224;SDS011;41091;49.400;8.684;2023-02-28T09:48:14;5.03;;;4.40;;
55224;SDS011;41091;49.400;8.684;2023-02-28T09:50:45;5.90;;;4.80;;
55224;SDS011;41091;49.400;8.684;2023-02-28T09:55:44;11.85;;;6.72;;
55224;SDS011;41091;49.400;8.684;2023-02-28T09:58:20;4.70;;;3.95;;
55224;SDS011;41091;49.400;8.684;2023-02-28T10:00:54;5.40;;;4.43;;
55224;SDS011;41091;49.400;8.684;2023-02-28T10:03:36;5.18;;;4.70;;
55224;SDS011;41091;49.400;8.684;2023-02-28T10:08:45;7.22;;;5.00;;
55224;SDS011;41091;49.400;8.684;2023-02-28T10:11:19;5.25;;;4.75;;
55224;SDS011;41091;49.400;8.684;2023-02-28T10:16:31;8.38;;;4.32;;
55224;SDS011;41091;49.400;8.684;2023-02-28T10:21:42;6.75;;;4.82;;
55224;SDS011;41091;49.400;8.684;2023-02-28T10:26:46;5.05;;;3.58;;
55224;SDS011;41091;49.400;8.684;2023-02-28T10:29:12;5.07;;;4.07;;
55224;SDS011;41091;49.400;8.684;2023-02-28T10:31:38;5.40;;;4.10;;
55224;SDS011;41091;49.400;8.684;2023-02-28T10:34:04;5.45;;;4.80;;
55224;SDS011;41091;49.400;8.684;2023-02-28T10:36:31;4.20;;;3.80;;
55224;SDS011;41091;49.400;8.684;2023-02-28T10:38:56;4.28;;;3.97;;
55224;SDS011;41091;49.400;8.684;2023-02-28T10:41:29;5.22;;;4.63;;
55224;SDS011;41091;49.400;8.684;2023-02-28T10:44:19;4.90;;;4.22;;
55224;SDS011;41091;49.400;8.684;2023-02-28T10:46:46;11.70;;;6.30;;
55224;SDS011;41091;49.400;8.684;2023-02-28T10:49:17;5.03;;;4.35;;
55224;SDS011;41091;49.400;8.684;2023-02-28T10:51:47;6.57;;;4.70;;
55224;SDS011;41091;49.400;8.684;2023-02-28T10:54:19;4.75;;;4.35;;
55224;SDS011;41091;49.400;8.684;2023-02-28T10:57:49;8.13;;;4.97;;
55224;SDS011;41091;49.400;8.684;2023-02-28T10:59:52;6.78;;;4.95;;
55224;SDS011;41091;49.400;8.684;2023-02-28T11:02:33;4.65;;;4.25;;
55224;SDS011;41091;49.400;8.684;2023-02-28T11:05:00;4.43;;;4.03;;
55224;SDS011;41091;49.400;8.684;2023-02-28T11:07:26;6.35;;;4.05;;
55224;SDS011;41091;49.400;8.684;2023-02-28T11:09:53;5.43;;;4.05;;
55224;SDS011;41091;49.400;8.684;2023-02-28T11:14:52;6.10;;;4.70;;
55224;SDS011;41091;49.400;8.684;2023-02-28T11:17:31;7.50;;;4.45;;
55224;SDS011;41091;49.400;8.684;2023-02-28T11:20:10;9.63;;;4.55;;
55224;SDS011;41091;49.400;8.684;2023-02-28T11:22:46;5.00;;;4.60;;
55224;SDS011;41091;49.400;8.684;2023-02-28T11:27:51;7.38;;;4.22;;
55224;SDS011;41091;49.400;8.684;2023-02-28T11:30:34;5.15;;;4.65;;
55224;SDS011;41091;49.400;8.684;2023-02-28T11:33:21;5.82;;;3.90;;
55224;SDS011;41091;49.400;8.684;2023-02-28T11:35:48;4.55;;;4.20;;
55224;SDS011;41091;49.400;8.684;2023-02-28T11:38:14;5.30;;;4.95;;
55224;SDS011;41091;49.400;8.684;2023-02-28T11:40:46;4.95;;;4.47;;
55224;SDS011;41091;49.400;8.684;2023-02-28T11:45:55;7.20;;;4.10;;
55224;SDS011;41091;49.400;8.684;2023-02-28T11:48:39;6.88;;;4.70;;
55224;SDS011;41091;49.400;8.684;2023-02-28T11:51:13;6.50;;;4.68;;
55224;SDS011;41091;49.400;8.684;2023-02-28T11:56:36;7.20;;;5.57;;
55224;SDS011;41091;49.400;8.684;2023-02-28T12:02:37;8.35;;;4.65;;
55224;SDS011;41091;49.400;8.684;2023-02-28T12:26:35;4.78;;;4.38;;
55224;SDS011;41091;49.400;8.684;2023-02-28T12:29:10;4.97;;;4.57;;
55224;SDS011;41091;49.400;8.684;2023-02-28T12:31:38;5.00;;;4.50;;
55224;SDS011;41091;49.400;8.684;2023-02-28T12:34:10;4.35;;;4.05;;
55224;SDS011;41091;49.400;8.684;2023-02-28T12:36:41;7.07;;;5.25;;
55224;SDS011;41091;49.400;8.684;2023-02-28T12:39:08;4.70;;;4.20;;
55224;SDS011;41091;49.400;8.684;2023-02-28T12:41:42;5.30;;;4.80;;
55224;SDS011;41091;49.400;8.684;2023-02-28T12:44:17;5.13;;;4.70;;
55224;SDS011;41091;49.400;8.684;2023-02-28T12:46:50;5.20;;;4.70;;
55224;SDS011;41091;49.400;8.684;2023-02-28T12:49:25;10.05;;;5.80;;
55224;SDS011;41091;49.400;8.684;2023-02-28T12:51:51;9.02;;;5.15;;
55224;SDS011;41091;49.400;8.684;2023-02-28T12:54:23;7.35;;;5.07;;
55224;SDS011;41091;49.400;8.684;2023-02-28T12:57:06;5.28;;;4.78;;
55224;SDS011;41091;49.400;8.684;2023-02-28T13:04:43;6.70;;;4.72;;
55224;SDS011;41091;49.400;8.684;2023-02-28T13:07:19;6.32;;;5.05;;
55224;SDS011;41091;49.400;8.684;2023-02-28T13:09:52;6.15;;;5.60;;
55224;SDS011;41091;49.400;8.684;2023-02-28T13:12:20;6.82;;;5.70;;
55224;SDS011;41091;49.400;8.684;2023-02-28T13:14:47;5.97;;;5.30;;
55224;SDS011;41091;49.400;8.684;2023-02-28T13:17:21;6.82;;;6.00;;
55224;SDS011;41091;49.400;8.684;2023-02-28T13:22:20;6.75;;;6.00;;
55224;SDS011;41091;49.400;8.684;2023-02-28T13:25:02;7.45;;;6.20;;
55224;SDS011;41091;49.400;8.684;2023-02-28T13:27:42;6.60;;;5.93;;
55224;SDS011;41091;49.400;8.684;2023-02-28T13:35:46;8.52;;;5.93;;
55224;SDS011;41091;49.400;8.684;2023-02-28T13:38:22;7.60;;;5.85;;
55224;SDS011;41091;49.400;8.684;2023-02-28T13:40:49;6.82;;;5.80;;
55224;SDS011;41091;49.400;8.684;2023-02-28T13:43:16;6.43;;;5.40;;
55224;SDS011;41091;49.400;8.684;2023-02-28T13:46:03;6.57;;;5.53;;
55224;SDS011;41091;49.400;8.684;2023-02-28T13:48:36;7.07;;;5.35;;
55224;SDS011;41091;49.400;8.684;2023-02-28T13:51:22;12.52;;;5.22;;
55224;SDS011;41091;49.400;8.684;2023-02-28T13:54:11;6.38;;;5.88;;
55224;SDS011;41091;49.400;8.684;2023-02-28T13:57:04;6.85;;;5.13;;
55224;SDS011;41091;49.400;8.684;2023-02-28T14:04:59;9.57;;;5.70;;
55224;SDS011;41091;49.400;8.684;2023-02-28T14:07:31;5.95;;;5.25;;
55224;SDS011;41091;49.400;8.684;2023-02-28T14:10:06;7.53;;;5.88;;
55224;SDS011;41091;49.400;8.684;2023-02-28T14:18:00;8.32;;;5.47;;
55224;SDS011;41091;49.400;8.684;2023-02-28T14:20:30;6.05;;;4.82;;
55224;SDS011;41091;49.400;8.684;2023-02-28T14:23:12;6.97;;;5.55;;
55224;SDS011;41091;49.400;8.684;2023-02-28T14:37:11;5.32;;;4.93;;
55224;SDS011;41091;49.400;8.684;2023-02-28T14:39:41;6.57;;;5.90;;
55224;SDS011;41091;49.400;8.684;2023-02-28T14:44:56;7.85;;;5.60;;
55224;SDS011;41091;49.400;8.684;2023-02-28T14:47:33;6.93;;;4.63;;
55224;SDS011;41091;49.400;8.684;2023-02-28T14:50:03;5.47;;;4.88;;
55224;SDS011;41091;49.400;8.684;2023-02-28T14:52:30;7.45;;;5.43;;
55224;SDS011;41091;49.400;8.684;2023-02-28T14:54:58;6.88;;;5.50;;
55224;SDS011;41091;49.400;8.684;2023-02-28T14:57:30;6.65;;;5.38;;
55224;SDS011;41091;49.400;8.684;2023-02-28T15:00:00;7.25;;;5.28;;
55224;SDS011;41091;49.400;8.684;2023-02-28T15:02:26;4.97;;;4.53;;
55224;SDS011;41091;49.400;8.684;2023-02-28T15:07:23;6.15;;;4.72;;
55224;SDS011;41091;49.400;8.684;2023-02-28T15:13:02;9.52;;;5.80;;
55224;SDS011;41091;49.400;8.684;2023-02-28T15:15:38;7.45;;;5.63;;
55224;SDS011;41091;49.400;8.684;2023-02-28T15:18:24;7.90;;;5.28;;
55224;SDS011;41091;49.400;8.684;2023-02-28T15:21:12;6.22;;;5.07;;
55224;SDS011;41091;49.400;8.684;2023-02-28T15:23:43;5.80;;;5.30;;
55224;SDS011;41091;49.400;8.684;2023-02-28T15:26:15;7.78;;;6.90;;
55224;SDS011;41091;49.400;8.684;2023-02-28T15:28:44;6.40;;;5.72;;
55224;SDS011;41091;49.400;8.684;2023-02-28T15:31:20;6.57;;;5.88;;
55224;SDS011;41091;49.400;8.684;2023-02-28T15:34:13;7.78;;;6.10;;
55224;SDS011;41091;49.400;8.684;2023-02-28T15:36:47;7.28;;;5.38;;
55224;SDS011;41091;49.400;8.684;2023-02-28T15:39:18;8.10;;;5.70;;
55224;SDS011;41091;49.400;8.684;2023-02-28T15:41:51;5.82;;;5.25;;
55224;SDS011;41091;49.400;8.684;2023-02-28T15:44:27;9.32;;;5.38;;
55224;SDS011;41091;49.400;8.684;2023-02-28T15:47:01;7.47;;;5.18;;
55224;SDS011;41091;49.400;8.684;2023-02-28T15:49:29;5.13;;;4.68;;
55224;SDS011;41091;49.400;8.684;2023-02-28T15:52:01;9.27;;;6.25;;
55224;SDS011;41091;49.400;8.684;2023-02-28T15:54:28;6.22;;;5.72;;
55224;SDS011;41091;49.400;8.684;2023-02-28T15:56:56;6.40;;;5.65;;
55224;SDS011;41091;49.400;8.684;2023-02-28T15:59:25;8.13;;;5.22;;
55224;SDS011;41091;49.400;8.684;2023-02-28T16:07:30;9.18;;;4.85;;
55224;SDS011;41091;49.400;8.684;2023-02-28T16:10:00;5.72;;;5.15;;
55224;SDS011;41091;49.400;8.684;2023-02-28T16:12:30;8.45;;;5.28;;
55224;SDS011;41091;49.400;8.684;2023-02-28T16:14:57;6.90;;;5.45;;
55224;SDS011;41091;49.400;8.684;2023-02-28T16:17:27;7.18;;;5.72;;
55224;SDS011;41091;49.400;8.684;2023-02-28T16:23:00;6.70;;;5.70;;
55224;SDS011;41091;49.400;8.684;2023-02-28T16:25:33;8.98;;;5.57;;
55224;SDS011;41091;49.400;8.684;2023-02-28T16:28:02;6.78;;;5.22;;
55224;SDS011;41091;49.400;8.684;2023-02-28T16:30:30;5.97;;;5.38;;
55224;SDS011;41091;49.400;8.684;2023-02-28T16:32:58;6.30;;;5.25;;
55224;SDS011;41091;49.400;8.684;2023-02-28T16:35:23;8.40;;;6.53;;
55224;SDS011;41091;49.400;8.684;2023-02-28T16:37:51;14.55;;;6.00;;
55224;SDS011;41091;49.400;8.684;2023-02-28T16:40:18;7.70;;;5.72;;
55224;SDS011;41091;49.400;8.684;2023-02-28T16:42:46;8.38;;;6.43;;
55224;SDS011;41091;49.400;8.684;2023-02-28T16:45:21;14.32;;;6.18;;
55224;SDS011;41091;49.400;8.684;2023-02-28T16:47:48;8.80;;;5.00;;
55224;SDS011;41091;49.400;8.684;2023-02-28T16:50:14;6.68;;;5.18;;
55224;SDS011;41091;49.400;8.684;2023-02-28T16:52:41;10.13;;;6.45;;
55224;SDS011;41091;49.400;8.684;2023-02-28T16:55:07;8.90;;;6.18;;
55224;SDS011;41091;49.400;8.684;2023-02-28T16:57:33;6.90;;;6.15;;
55224;SDS011;41091;49.400;8.684;2023-02-28T17:00:00;6.18;;;5.57;;
55224;SDS011;41091;49.400;8.684;2023-02-28T17:02:26;8.65;;;6.07;;
55224;SDS011;41091;49.400;8.684;2023-02-28T17:04:54;15.82;;;8.05;;
55224;SDS011;41091;49.400;8.684;2023-02-28T17:07:21;11.77;;;7.40;;
55224;SDS011;41091;49.400;8.684;2023-02-28T17:09:47;9.70;;;6.50;;
55224;SDS011;41091;49.400;8.684;2023-02-28T17:12:12;10.73;;;6.18;;
55224;SDS011;41091;49.400;8.684;2023-02-28T17:14:42;6.25;;;5.72;;
55224;SDS011;41091;49.400;8.684;2023-02-28T17:17:09;9.23;;;6.05;;
55224;SDS011;41091;49.400;8.684;2023-02-28T17:19:38;8.63;;;7.05;;
55224;SDS011;41091;49.400;8.684;2023-02-28T17:22:07;10.23;;;7.45;;
55224;SDS011;41091;49.400;8.684;2023-02-28T17:24:33;15.10;;;8.68;;
55224;SDS011;41091;49.400;8.684;2023-02-28T17:26:58;12.10;;;6.38;;
55224;SDS011;41091;49.400;8.684;2023-02-28T17:29:24;9.38;;;6.55;;
55224;SDS011;41091;49.400;8.684;2023-02-28T17:31:49;12.60;;;5.85;;
55224;SDS011;41091;49.400;8.684;2023-02-28T17:34:14;9.27;;;6.53;;